Time;durP1;ratioP1;P1;durP2;ratioP2;P2;SDS_P1;SDS_P2;PMS_P1;PMS_P2;Temp;Humidity;BMP_temperature;BMP_pressure;BME280_temperature;BME280_humidity;BME280_pressure;Samples;Min_cycle;Max_cycle;Signal;HPM_P1;HPM_P2
2023/04/11 00:01:50;;;;;;;7.03;1.35;;;;;;;19.46;38.02;100926.25;16119351;19;129671;-47
2023/04/11 00:07:12;;;;;;;7.40;1.77;;;;;;;19.42;38.02;100927.84;16122281;19;131314;-48
2023/04/11 00:12:34;;;;;;;6.45;1.98;;;;;;;19.41;38.02;100922.56;16121248;19;129739;-50
2023/04/11 00:17:57;;;;;;;7.60;1.48;;;;;;;19.37;37.94;100925.84;16121447;19;130359;-49
2023/04/11 00:23:19;;;;;;;6.28;1.50;;;;;;;19.35;38.06;100921.63;16121986;19;129737;-48
2023/04/11 00:28:41;;;;;;;5.13;1.70;;;;;;;19.33;37.78;100930.19;16122053;19;129962;-50
2023/04/11 00:34:03;;;;;;;10.50;1.83;;;;;;;19.31;38.24;100924.09;16119639;19;130923;-48
2023/04/11 00:39:29;;;;;;;7.85;1.88;;;;;;;19.29;37.88;100923.47;16116281;19;130677;-48
2023/04/11 00:44:51;;;;;;;8.15;1.63;;;;;;;19.28;38.26;100932.03;16119481;19;129719;-48
2023/04/11 00:50:14;;;;;;;6.78;1.92;;;;;;;19.26;38.22;100935.06;16120890;19;130381;-49
2023/04/11 00:55:36;;;;;;;6.35;1.60;;;;;;;19.24;37.96;100936.44;16121425;19;129617;-46
2023/04/11 01:00:59;;;;;;;6.35;1.30;;;;;;;19.21;38.04;100930.28;16119497;19;131083;-49
2023/04/11 01:06:22;;;;;;;5.93;1.60;;;;;;;19.20;38.10;100924.97;16118128;19;130255;-48
2023/04/11 01:11:44;;;;;;;5.30;1.70;;;;;;;19.19;38.18;100923.28;16122055;19;129681;-47
2023/04/11 01:17:06;;;;;;;5.97;1.67;;;;;;;19.17;38.07;100939.31;16116174;19;129893;-51
2023/04/11 01:22:29;;;;;;;5.65;1.17;;;;;;;19.15;38.02;100949.81;16116653;19;130304;-49
2023/04/11 01:27:51;;;;;;;7.05;1.65;;;;;;;19.13;37.71;100946.44;16117656;19;129077;-52
2023/04/11 01:33:14;;;;;;;4.72;1.17;;;;;;;19.12;38.08;100945.63;16118202;19;131166;-52
2023/04/11 01:38:36;;;;;;;6.28;1.65;;;;;;;19.10;38.02;100952.47;16117909;19;130471;-50
2023/04/11 01:43:59;;;;;;;5.65;1.80;;;;;;;19.08;37.84;100953.56;16117210;19;130083;-52
2023/04/11 01:49:23;;;;;;;8.88;1.88;;;;;;;19.08;37.70;100958.28;16114653;19;130273;-49
2023/04/11 01:54:45;;;;;;;8.10;1.88;;;;;;;19.06;38.04;100964.09;16115176;19;130218;-49
2023/04/11 02:00:09;;;;;;;7.53;1.92;;;;;;;19.06;37.78;100958.56;16111982;19;129515;-49
2023/04/11 02:05:31;;;;;;;7.03;1.35;;;;;;;19.04;38.10;100968.19;16114042;19;130055;-47
2023/04/11 02:10:56;;;;;;;9.03;2.17;;;;;;;19.02;37.83;100982.31;16114226;19;129766;-50
2023/04/11 02:16:19;;;;;;;8.88;1.90;;;;;;;19.01;37.69;100993.66;16115845;19;130903;-47
2023/04/11 02:21:42;;;;;;;9.00;1.45;;;;;;;18.99;37.65;101004.97;16106170;19;129328;-48
2023/04/11 02:27:04;;;;;;;5.00;1.63;;;;;;;18.98;37.94;100994.97;16111034;19;130387;-47
2023/04/11 02:32:26;;;;;;;5.20;1.75;;;;;;;18.97;37.90;101004.38;16115385;19;131753;-53
2023/04/11 02:37:48;;;;;;;6.57;1.65;;;;;;;18.96;37.97;100996.31;16125316;19;131053;-51
2023/04/11 02:43:10;;;;;;;7.18;1.95;;;;;;;18.95;37.57;101005.72;16123456;19;129453;-54
2023/04/11 02:48:32;;;;;;;8.35;1.85;;;;;;;;;;16115471;19;129695;-53
2023/04/11 02:53:54;;;;;;;7.75;1.55;;;;;;;18.90;37.54;100995.38;16120927;19;130441;-49
2023/04/11 02:59:15;;;;;;;6.38;1.67;;;;;;;18.88;37.94;101006.72;16124555;19;129508;-48
2023/04/11 03:04:37;;;;;;;5.75;1.77;;;;;;;18.87;37.55;101010.56;16124296;19;130709;-47
2023/04/11 03:09:59;;;;;;;8.65;1.83;;;;;;;18.86;38.02;101024.66;16126067;19;129566;-49
2023/04/11 03:15:21;;;;;;;6.75;1.98;;;;;;;18.86;37.55;101035.75;16125356;19;130233;-53
2023/04/11 03:20:44;;;;;;;7.18;2.05;;;;;;;18.84;37.89;101044.31;16121560;19;130266;-51
2023/04/11 03:26:06;;;;;;;5.80;1.55;;;;;;;18.82;37.46;101048.44;16124281;19;129727;-53
2023/04/11 03:31:29;;;;;;;5.32;1.50;;;;;;;18.81;37.91;101044.81;16122921;19;131216;-50
2023/04/11 03:36:51;;;;;;;6.55;1.77;;;;;;;18.80;37.91;101053.38;16123296;19;129232;-48
2023/04/11 03:42:13;;;;;;;6.43;1.95;;;;;;;18.79;37.41;101048.91;16125415;19;130699;-47
2023/04/11 03:47:37;;;;;;;12.05;1.98;;;;;;;18.79;37.75;101048.91;16122088;19;129867;-49
2023/04/11 03:52:59;;;;;;;5.72;1.50;;;;;;;18.76;37.79;101053.84;16123095;19;129591;-47
2023/04/11 03:58:20;;;;;;;7.80;1.83;;;;;;;18.75;37.58;101065.19;16125967;19;129825;-52
2023/04/11 04:03:42;;;;;;;5.15;1.35;;;;;;;18.75;37.41;101071.56;16123489;19;130577;-49
2023/04/11 04:09:04;;;;;;;6.63;1.42;;;;;;;18.73;37.49;101075.69;16124273;19;131792;-52
2023/04/11 04:14:26;;;;;;;9.05;1.80;;;;;;;18.71;37.81;101078.69;16124179;19;129662;-48
2023/04/11 04:19:49;;;;;;;7.40;2.00;;;;;;;18.70;37.70;101084.47;16124260;19;129477;-49
2023/04/11 04:25:14;;;;;;;6.50;1.58;;;;;;;18.69;37.81;101091.97;16121294;19;130647;-47
2023/04/11 04:30:37;;;;;;;6.87;1.77;;;;;;;18.66;37.82;101097.97;16123753;19;131023;-48
2023/04/11 04:35:58;;;;;;;5.78;1.63;;;;;;;18.67;37.68;101104.34;16122763;19;130431;-47
2023/04/11 04:41:21;;;;;;;7.00;1.60;;;;;;;18.65;37.75;101107.38;16120392;19;129626;-48
2023/04/11 04:46:43;;;;;;;6.13;1.73;;;;;;;18.65;37.79;101114.81;16120382;19;132584;-48
2023/04/11 04:52:05;;;;;;;3.55;1.15;;;;;;;18.63;37.80;101114.25;16118282;19;131134;-52
2023/04/11 04:57:28;;;;;;;11.80;1.75;;;;;;;18.61;37.74;101123.66;16118330;19;129664;-49
2023/04/11 05:02:53;;;;;;;5.00;1.40;;;;;;;18.60;37.61;101126.63;16116667;19;129859;-49
2023/04/11 05:08:19;;;;;;;4.73;1.30;;;;;;;18.68;37.19;101129.06;16121564;19;131087;-48
2023/04/11 05:13:41;;;;;;;;;;;;;;;18.89;37.44;101146.16;16120049;19;131910;-48
2023/04/11 05:19:03;;;;;;;5.75;1.30;;;;;;;19.17;37.07;101148.16;16122047;19;130824;-50
2023/04/11 05:24:25;;;;;;;3.70;1.08;;;;;;;19.38;36.67;101160.56;16116362;19;130497;-48
2023/04/11 05:29:47;;;;;;;5.30;1.52;;;;;;;19.47;36.13;101166.56;16115001;19;129764;-47
2023/04/11 05:35:09;;;;;;;10.13;1.60;;;;;;;19.55;36.29;101161.69;16114492;19;129856;-49
2023/04/11 05:40:31;;;;;;;12.15;1.70;;;;;;;19.58;36.48;101158.44;16117881;19;130069;-52
2023/04/11 05:45:53;;;;;;;7.05;1.83;;;;;;;19.59;36.00;101172.06;16120380;19;131925;-51
2023/04/11 05:51:15;;;;;;;11.70;2.22;;;;;;;19.60;35.98;101162.66;16117546;19;129347;-47
2023/04/11 05:56:38;;;;;;;10.15;1.92;;;;;;;19.60;36.41;101173.75;16114683;19;129652;-48
2023/04/11 06:02:01;;;;;;;8.27;1.80;;;;;;;19.61;36.26;101189.31;16116030;19;131351;-49
2023/04/11 06:07:23;;;;;;;11.70;2.03;;;;;;;19.61;36.24;101192.09;16110332;19;135785;-50
2023/04/11 06:12:45;;;;;;;12.80;2.00;;;;;;;19.64;36.31;101196.28;16115325;19;133120;-52
2023/04/11 06:18:07;;;;;;;8.20;1.67;;;;;;;19.65;36.51;101209.09;16115293;19;130476;-51
2023/04/11 06:23:28;;;;;;;15.77;2.42;;;;;;;19.67;36.08;101213.31;16114657;19;131136;-50
2023/04/11 06:28:50;;;;;;;13.82;2.00;;;;;;;19.70;36.09;101206.44;16113823;19;129416;-49
2023/04/11 06:34:12;;;;;;;10.68;1.63;;;;;;;19.75;36.28;101214.00;16114844;19;130393;-51
2023/04/11 06:39:35;;;;;;;9.25;1.63;;;;;;;19.75;36.42;101211.22;16114416;19;130960;-48
2023/04/11 06:44:56;;;;;;;9.95;1.83;;;;;;;19.80;36.46;101225.22;16115548;19;129511;-48
2023/04/11 06:50:18;;;;;;;9.93;2.10;;;;;;;19.82;36.01;101234.13;16116506;19;129539;-50
2023/04/11 06:55:40;;;;;;;10.52;1.70;;;;;;;19.87;36.27;101248.13;16116055;19;130540;-47
2023/04/11 07:01:02;;;;;;;6.53;1.60;;;;;;;20.01;36.21;101239.53;16112537;19;129620;-48
2023/04/11 07:06:25;;;;;;;10.07;1.67;;;;;;;20.12;35.75;101256.13;16111449;19;129432;-49
2023/04/11 07:11:48;;;;;;;8.18;1.38;;;;;;;20.27;36.00;101258.38;16112859;19;129541;-49
2023/04/11 07:17:10;;;;;;;5.60;1.40;;;;;;;20.44;35.78;101266.72;16113061;19;129480;-47
2023/04/11 07:22:32;;;;;;;7.55;1.73;;;;;;;20.64;35.51;101284.84;16127397;19;130789;-50
2023/04/11 07:27:54;;;;;;;6.70;1.63;;;;;;;20.78;35.12;101296.53;16128006;19;131200;-47
2023/04/11 07:33:16;;;;;;;7.70;1.70;;;;;;;20.89;34.76;101295.59;16124671;19;129932;-51
2023/04/11 07:38:38;;;;;;;10.38;1.65;;;;;;;20.95;34.85;101287.34;16125266;19;129470;-48
2023/04/11 07:44:00;;;;;;;5.03;1.40;;;;;;;21.00;34.49;101299.38;16125108;19;129314;-48
2023/04/11 07:49:22;;;;;;;7.32;1.70;;;;;;;21.02;34.85;101305.53;16123016;19;129512;-54
2023/04/11 07:54:43;;;;;;;11.35;1.85;;;;;;;21.03;34.90;101312.78;16123384;19;129603;-48
2023/04/11 08:00:08;;;;;;;8.23;1.52;;;;;;;21.02;34.49;101310.28;16122907;19;130407;-49
2023/04/11 08:05:33;;;;;;;7.80;1.50;;;;;;;20.97;34.67;101302.69;16123881;19;130155;-48
2023/04/11 08:10:55;;;;;;;7.28;1.40;;;;;;;20.93;34.57;101295.09;16128279;19;130232;-50
2023/04/11 08:16:17;;;;;;;10.68;2.00;;;;;;;20.92;34.76;101305.38;16116378;19;130604;-50
2023/04/11 08:21:40;;;;;;;7.47;1.50;;;;;;;20.86;34.77;101304.44;16119020;19;129379;-50
2023/04/11 08:27:02;;;;;;;7.15;1.58;;;;;;;20.83;35.01;101313.28;16121652;19;131303;-52
2023/04/11 08:32:24;;;;;;;8.27;1.63;;;;;;;20.79;35.03;101314.06;16119441;19;129709;-47
2023/04/11 08:37:47;;;;;;;6.13;1.15;;;;;;;20.74;34.92;101326.72;16121373;19;129245;-47
2023/04/11 08:43:11;;;;;;;6.07;1.55;;;;;;;20.73;35.06;101324.22;16120568;19;129793;-50
2023/04/11 08:48:33;;;;;;;4.80;1.20;;;;;;;20.70;34.77;101324.69;16121727;19;129754;-49
2023/04/11 08:53:59;;;;;;;6.07;1.35;;;;;;;20.66;34.95;101327.16;16124428;19;130994;-51
2023/04/11 08:59:21;;;;;;;6.93;1.38;;;;;;;20.65;34.64;101327.41;16123337;19;129356;-52
2023/04/11 09:04:43;;;;;;;6.18;0.88;;;;;;;20.60;34.86;101326.22;16113710;19;129316;-49
2023/04/11 09:10:19;;;;;;;7.28;1.33;;;;;;;20.55;35.10;101330.84;16120906;19;129569;-49
2023/04/11 09:15:41;;;;;;;5.83;1.00;;;;;;;20.51;34.66;101332.41;16120330;19;129304;-51
2023/04/11 09:21:05;;;;;;;3.22;0.88;;;;;;;20.51;35.05;101333.28;16123121;19;129650;-48
2023/04/11 09:26:29;;;;;;;5.17;1.17;;;;;;;20.53;34.69;101352.47;16115964;19;132225;-46
2023/04/11 09:31:51;;;;;;;3.03;0.90;;;;;;;20.56;34.85;101349.19;16117609;19;132132;-49
2023/04/11 09:37:13;;;;;;;2.15;0.80;;;;;;;20.64;34.37;101348.78;16117543;19;131803;-49
2023/04/11 09:42:34;;;;;;;3.88;1.15;;;;;;;20.72;34.27;101336.41;16114545;19;130158;-50
2023/04/11 09:47:58;;;;;;;5.90;1.10;;;;;;;20.84;34.56;101342.78;16118048;19;130673;-49
2023/04/11 09:53:20;;;;;;;2.83;0.82;;;;;;;20.94;34.03;101341.28;16118578;19;130344;-52
2023/04/11 09:58:42;;;;;;;6.00;1.00;;;;;;;21.01;34.29;101341.97;16113666;19;130718;-51
2023/04/11 10:04:03;;;;;;;4.38;1.30;;;;;;;20.99;33.93;101339.41;16119819;19;130181;-49
2023/04/11 10:09:26;;;;;;;8.68;1.65;;;;;;;20.95;33.50;101338.25;16115045;19;129804;-49
2023/04/11 10:14:48;;;;;;;3.75;1.40;;;;;;;20.87;33.60;101331.16;16116453;19;129736;-49
2023/04/11 10:20:36;;;;;;;4.47;1.00;;;;;;;20.84;33.63;101325.28;16114626;19;129554;-47
2023/04/11 10:25:59;;;;;;;6.88;1.30;;;;;;;20.77;33.61;101322.66;16117823;19;132675;-49
2023/04/11 10:31:21;;;;;;;6.32;1.55;;;;;;;20.70;33.68;101310.81;16115254;19;129665;-51
2023/04/11 10:37:06;;;;;;;2.22;1.02;;;;;;;20.66;33.62;101309.63;16113575;19;130076;-49
2023/04/11 10:42:32;;;;;;;6.13;0.95;;;;;;;20.59;33.96;101320.91;16114324;19;130143;-49
2023/04/11 10:48:06;;;;;;;5.63;1.30;;;;;;;20.54;33.85;101318.03;16116501;19;130149;-49
2023/04/11 10:53:36;;;;;;;6.00;1.33;;;;;;;20.49;33.68;101312.41;16123991;19;131014;-49
2023/04/11 10:58:58;;;;;;;5.45;1.40;;;;;;;20.44;33.69;101310.34;16129096;19;130799;-55
2023/04/11 11:04:29;;;;;;;3.78;1.58;;;;;;;20.39;33.68;101299.97;16128705;19;129422;-51
2023/04/11 11:09:52;;;;;;;6.10;1.30;;;;;;;20.37;34.02;101309.66;16125997;19;130158;-52
2023/04/11 11:15:14;;;;;;;3.13;1.00;;;;;;;20.34;33.89;101310.16;16127818;19;129196;-49
2023/04/11 11:20:36;;;;;;;4.90;1.10;;;;;;;20.29;34.13;101297.88;16126328;19;130134;-52
2023/04/11 11:25:59;;;;;;;3.33;1.23;;;;;;;20.27;34.13;101325.06;16127419;19;130452;-52
2023/04/11 11:31:21;;;;;;;4.07;0.85;;;;;;;20.25;33.65;101318.91;16127596;19;129883;-46
2023/04/11 11:36:45;;;;;;;5.35;1.10;;;;;;;20.22;34.15;101322.16;16127340;19;131720;-51
2023/04/11 11:42:07;;;;;;;6.22;1.00;;;;;;;20.19;33.87;101308.75;16128979;19;129637;-49
2023/04/11 11:47:40;;;;;;;6.55;0.88;;;;;;;20.19;33.45;101322.66;16126266;19;130510;-51
2023/04/11 11:53:13;;;;;;;6.40;1.17;;;;;;;20.17;33.54;101327.63;16129119;19;129279;-50
2023/04/11 11:58:42;;;;;;;3.55;1.10;;;;;;;20.14;33.40;101334.50;16124881;19;129260;-51
2023/04/11 12:04:05;;;;;;;6.57;1.00;;;;;;;20.12;33.17;101341.41;16122793;19;129432;-51
2023/04/11 12:09:32;;;;;;;1.95;0.73;;;;;;;20.11;33.47;101361.94;16121847;19;129645;-52
2023/04/11 12:14:54;;;;;;;4.45;0.93;;;;;;;20.09;33.60;101376.09;16124359;19;129633;-47
2023/04/11 12:20:16;;;;;;;4.15;0.90;;;;;;;20.07;33.55;101392.16;16125411;19;129681;-48
2023/04/11 12:25:39;;;;;;;3.70;0.98;;;;;;;20.06;33.37;101392.41;16123793;19;133449;-47
2023/04/11 12:31:01;;;;;;;4.00;1.25;;;;;;;20.04;33.73;101373.19;16121191;19;129792;-48
2023/04/11 12:36:24;;;;;;;3.50;1.05;;;;;;;20.01;33.82;101365.34;16120911;19;130216;-49
2023/04/11 12:41:46;;;;;;;3.90;1.05;;;;;;;20.01;33.36;101378.38;16120730;19;130186;-50
2023/04/11 12:47:08;;;;;;;3.00;0.80;;;;;;;20.02;33.63;101380.09;16121792;19;129367;-49
2023/04/11 12:52:30;;;;;;;1.73;0.65;;;;;;;20.01;33.47;101356.16;16118088;19;130292;-49
2023/04/11 12:57:52;;;;;;;5.40;0.65;;;;;;;19.98;34.01;101352.75;16121618;19;131177;-48
2023/04/11 13:03:14;;;;;;;1.75;0.50;;;;;;;19.97;34.05;101356.63;16122353;19;131248;-48
2023/04/11 13:08:37;;;;;;;3.35;0.43;;;;;;;19.96;33.81;101351.31;16122075;19;130282;-46
2023/04/11 13:13:58;;;;;;;2.92;1.00;;;;;;;19.94;34.01;101346.00;16121208;19;129724;-51
2023/04/11 13:19:21;;;;;;;2.85;0.60;;;;;;;19.93;33.90;101332.38;16121373;19;130415;-49
2023/04/11 13:24:43;;;;;;;4.95;0.95;;;;;;;19.93;33.94;101324.03;16119359;19;129564;-47
2023/04/11 13:30:07;;;;;;;2.55;0.68;;;;;;;19.91;34.04;101315.09;16118078;19;129829;-46
2023/04/11 13:35:29;;;;;;;3.55;0.90;;;;;;;19.89;33.62;101306.16;16118736;19;129554;-47
2023/04/11 13:40:51;;;;;;;1.92;0.52;;;;;;;19.87;33.40;101300.03;16116612;19;130353;-47
2023/04/11 13:46:14;;;;;;;2.45;0.90;;;;;;;19.84;33.68;101290.25;16118279;19;128995;-50
2023/04/11 13:51:37;;;;;;;7.00;1.33;;;;;;;19.81;33.42;101288.81;16117753;19;131437;-51
2023/04/11 13:56:59;;;;;;;6.90;1.00;;;;;;;19.84;33.57;101281.94;16121038;19;129559;-48
2023/04/11 14:02:21;;;;;;;3.88;0.75;;;;;;;19.87;33.47;101275.88;16116367;19;130555;-48
2023/04/11 14:07:43;;;;;;;3.22;0.77;;;;;;;19.93;32.97;101258.25;16117302;19;135697;-48
2023/04/11 14:13:05;;;;;;;1.65;0.57;;;;;;;20.01;33.01;101251.47;16114281;19;129464;-49
2023/04/11 14:18:27;;;;;;;3.13;0.75;;;;;;;20.09;33.12;101237.19;16113638;19;131193;-51
2023/04/11 14:23:49;;;;;;;5.65;1.08;;;;;;;20.20;32.96;101234.63;16116601;19;130816;-47
2023/04/11 14:29:12;;;;;;;8.38;1.23;;;;;;;20.28;32.21;101239.75;16133214;19;129423;-45
2023/04/11 14:34:34;;;;;;;8.07;1.17;;;;;;;20.33;31.76;101236.22;16147700;19;129424;-47
2023/04/11 14:39:56;;;;;;;4.45;1.30;;;;;;;20.35;32.07;101236.81;16149401;19;129454;-46
2023/04/11 14:45:18;;;;;;;6.40;1.27;;;;;;;20.37;31.68;101240.19;16146298;19;129165;-49
2023/04/11 14:50:39;;;;;;;9.60;1.60;;;;;;;20.36;32.08;101219.91;16145383;19;129450;-48
2023/04/11 14:56:05;;;;;;;8.15;1.58;;;;;;;20.34;31.81;101210.13;16148525;19;129707;-47
2023/04/11 15:01:27;;;;;;;16.25;2.30;;;;;;;20.27;32.14;101194.47;16144066;19;129411;-47
2023/04/11 15:06:49;;;;;;;12.60;2.10;;;;;;;20.22;31.87;101186.03;16139891;19;131340;-53
2023/04/11 15:12:11;;;;;;;11.88;2.00;;;;;;;20.18;31.76;101184.88;16144109;19;129377;-49
2023/04/11 15:17:39;;;;;;;8.38;1.98;;;;;;;20.16;32.24;101180.63;16143777;19;129881;-49
2023/04/11 15:23:01;;;;;;;13.63;2.08;;;;;;;20.10;32.16;101176.94;16144844;19;128988;-48
2023/04/11 15:28:24;;;;;;;10.95;1.63;;;;;;;20.07;32.30;101180.19;16143984;19;133381;-50
2023/04/11 15:33:47;;;;;;;12.70;1.77;;;;;;;20.04;32.16;101177.94;16142994;19;130526;-48
2023/04/11 15:39:09;;;;;;;9.52;1.80;;;;;;;20.03;32.03;101176.25;16132412;19;130328;-48
2023/04/11 15:44:31;;;;;;;7.93;1.65;;;;;;;20.02;32.42;101164.28;16118983;19;133587;-51
2023/04/11 15:49:53;;;;;;;10.18;1.83;;;;;;;20.03;32.39;101170.69;16119762;19;131383;-53
2023/04/11 15:55:15;;;;;;;11.75;2.05;;;;;;;20.02;32.31;101164.28;16124990;19;129883;-48
2023/04/11 16:00:38;;;;;;;7.68;1.88;;;;;;;20.00;32.45;101160.91;16120652;19;130103;-50
2023/04/11 16:06:01;;;;;;;11.73;2.17;;;;;;;19.98;32.11;101140.88;16121754;19;130201;-48
2023/04/11 16:11:23;;;;;;;13.10;1.90;;;;;;;19.98;32.47;101144.47;16123871;19;129815;-48
2023/04/11 16:16:45;;;;;;;9.85;2.47;;;;;;;19.97;32.69;101139.19;16121002;19;129456;-48
2023/04/11 16:22:07;;;;;;;10.40;1.85;;;;;;;19.95;32.50;101142.19;16121221;19;129982;-50
2023/04/11 16:27:29;;;;;;;10.98;1.75;;;;;;;19.94;32.65;101134.97;16120068;19;129558;-50
2023/04/11 16:32:51;;;;;;;14.18;2.08;;;;;;;19.90;32.11;101122.69;16117113;19;131157;-46
2023/04/11 16:38:13;;;;;;;16.00;2.17;;;;;;;19.97;32.23;101128.91;16118791;19;130695;-50
2023/04/11 16:43:35;;;;;;;13.13;2.28;;;;;;;20.13;32.43;101126.44;16115920;19;130975;-47
2023/04/11 16:48:58;;;;;;;9.57;1.42;;;;;;;20.28;32.30;101121.16;16110794;19;130270;-47
2023/04/11 16:54:20;;;;;;;11.65;1.55;;;;;;;20.41;32.11;101119.13;16119580;19;130605;-49
2023/04/11 16:59:41;;;;;;;12.93;1.40;;;;;;;20.51;32.07;101118.41;16116775;19;132277;-47
2023/04/11 17:05:04;;;;;;;6.60;1.25;;;;;;;20.55;31.86;101106.56;16115304;19;131300;-50
2023/04/11 17:10:26;;;;;;;11.85;1.30;;;;;;;20.55;31.70;101095.44;16109049;19;131052;-51
2023/04/11 17:15:47;;;;;;;16.05;2.00;;;;;;;20.54;31.82;101088.19;16119187;19;129863;-52
2023/04/11 17:21:09;;;;;;;12.23;1.90;;;;;;;20.55;32.22;101084.31;16117832;19;129352;-47
2023/04/11 17:26:33;;;;;;;10.45;1.30;;;;;;;20.59;32.39;101077.13;16115369;19;131240;-48
2023/04/11 17:31:55;;;;;;;15.90;1.70;;;;;;;20.72;32.30;101075.09;16116177;19;132225;-51
2023/04/11 17:37:17;;;;;;;20.10;2.08;;;;;;;20.82;32.32;101069.69;16113603;19;129404;-52
2023/04/11 17:42:40;;;;;;;13.95;1.63;;;;;;;20.86;32.46;101079.22;16113344;19;129893;-57
2023/04/11 17:48:06;;;;;;;15.55;1.35;;;;;;;20.85;32.29;101060.00;16117926;19;129160;-46
2023/04/11 17:53:28;;;;;;;15.43;1.70;;;;;;;20.82;32.35;101057.75;16117985;19;129156;-53
2023/04/11 17:58:51;;;;;;;15.65;1.92;;;;;;;20.76;32.88;101045.72;16114821;19;130228;-50
2023/04/11 18:04:14;;;;;;;19.58;1.80;;;;;;;20.70;32.82;101042.00;16112023;19;131037;-32
2023/04/11 18:09:36;;;;;;;25.67;2.15;;;;;;;20.62;33.14;101038.81;16116403;19;130952;-43
2023/04/11 18:14:59;;;;;;;16.67;2.25;;;;;;;20.51;33.20;101047.00;16111844;19;131182;-43
2023/04/11 18:20:21;;;;;;;25.38;2.33;;;;;;;20.45;33.34;101034.13;16111495;19;133590;-41
2023/04/11 18:25:43;;;;;;;21.60;2.35;;;;;;;20.39;33.33;101030.44;16113214;19;129422;-42
2023/04/11 18:31:05;;;;;;;21.13;2.47;;;;;;;20.36;33.40;101030.97;16111740;19;130149;-46
2023/04/11 18:36:28;;;;;;;16.00;1.77;;;;;;;20.34;33.71;101021.19;16109928;19;129617;-45
2023/04/11 18:41:50;;;;;;;18.40;1.60;;;;;;;20.32;33.77;101012.25;16111579;19;129674;-41
2023/04/11 18:47:15;;;;;;;16.33;1.75;;;;;;;20.27;33.85;101011.13;16109732;19;129413;-44
2023/04/11 18:52:38;;;;;;;15.32;1.50;;;;;;;20.38;34.01;101011.25;16114306;19;130598;-41
2023/04/11 18:58:01;;;;;;;12.23;1.13;;;;;;;20.68;33.67;101007.19;16111826;19;129788;-42
2023/04/11 19:03:27;;;;;;;15.93;1.17;;;;;;;21.07;33.54;100996.00;16107764;19;131974;-41
2023/04/11 19:08:49;;;;;;;9.90;1.27;;;;;;;21.48;33.09;100995.56;16106448;19;130620;-46
2023/04/11 19:14:11;;;;;;;11.40;1.25;;;;;;;21.75;32.68;100978.88;16117008;19;129881;-43
2023/04/11 19:19:33;;;;;;;6.55;1.00;;;;;;;21.85;32.54;100974.47;16122500;19;130302;-42
2023/04/11 19:24:55;;;;;;;14.13;1.30;;;;;;;21.85;33.05;100954.97;16085062;19;131494;-42
2023/04/11 19:30:17;;;;;;;32.03;2.53;;;;;;;21.76;33.02;100947.13;16104082;19;129421;-46
2023/04/11 19:35:40;;;;;;;38.03;3.00;;;;;;;21.68;33.58;100944.84;16108255;19;130743;-44
2023/04/11 19:41:10;;;;;;;12.70;1.77;;;;;;;21.60;33.38;100931.41;16121830;19;129760;-42
2023/04/11 19:46:32;;;;;;;22.83;3.03;;;;;;;21.47;34.09;100916.81;16120849;19;130174;-43
2023/04/11 19:51:54;;;;;;;10.52;0.90;;;;;;;21.35;34.08;100905.03;16119502;19;130220;-45
2023/04/11 19:57:16;;;;;;;17.33;2.38;;;;;;;21.25;33.84;100891.03;16124614;19;131370;-50
2023/04/11 20:02:43;;;;;;;22.40;2.05;;;;;;;21.14;34.04;100874.25;16119155;19;131112;-50
2023/04/11 20:08:06;;;;;;;15.10;1.77;;;;;;;21.03;34.00;100867.75;16123797;19;130027;-48
2023/04/11 20:13:28;;;;;;;20.30;1.70;;;;;;;20.95;34.25;100857.13;16122021;19;129625;-46
2023/04/11 20:18:53;;;;;;;17.88;1.45;;;;;;;20.85;33.97;100837.56;16122391;19;130731;-44
2023/04/11 20:24:16;;;;;;;18.55;1.33;;;;;;;20.78;34.09;100843.34;16118725;19;129390;-41
2023/04/11 20:29:38;;;;;;;15.52;1.67;;;;;;;20.70;33.94;100840.97;16116563;19;131350;-47
2023/04/11 20:35:00;;;;;;;10.07;1.35;;;;;;;20.63;34.25;100826.47;16120774;19;129890;-46
2023/04/11 20:40:23;;;;;;;5.20;1.20;;;;;;;20.55;34.31;100828.63;16117629;19;129678;-49
2023/04/11 20:45:45;;;;;;;9.45;1.10;;;;;;;20.49;34.59;100824.09;16120519;19;129619;-45
2023/04/11 20:51:07;;;;;;;7.43;1.25;;;;;;;20.44;34.29;100804.59;16121491;19;129401;-47
2023/04/11 20:56:34;;;;;;;9.30;1.27;;;;;;;20.39;34.30;100804.53;16120074;19;129913;-49
2023/04/11 21:01:56;;;;;;;9.90;1.23;;;;;;;20.33;34.48;100791.69;16119315;19;130849;-50
2023/04/11 21:07:18;;;;;;;5.78;0.90;;;;;;;20.27;34.67;100793.56;16116794;19;129714;-50
2023/04/11 21:12:41;;;;;;;5.53;0.95;;;;;;;20.20;34.84;100793.78;16114202;19;130087;-45
2023/04/11 21:18:04;;;;;;;5.13;0.85;;;;;;;20.15;34.54;100782.63;16118265;19;129209;-45
2023/04/11 21:23:28;;;;;;;7.55;1.25;;;;;;;20.12;34.42;100769.25;16114229;19;129480;-45
2023/04/11 21:28:50;;;;;;;4.28;0.60;;;;;;;20.06;34.59;100762.78;16113318;19;129782;-45
2023/04/11 21:34:11;;;;;;;3.83;0.73;;;;;;;20.02;34.86;100755.25;16109848;19;129598;-45
2023/04/11 21:39:33;;;;;;;2.35;0.52;;;;;;;19.99;34.91;100742.69;16114496;19;130228;-44
2023/04/11 21:44:55;;;;;;;4.93;0.70;;;;;;;19.95;34.77;100730.44;16115675;19;130455;-43
2023/04/11 21:50:17;;;;;;;5.97;0.65;;;;;;;19.95;34.65;100727.66;16115515;19;130665;-47
2023/04/11 21:55:44;;;;;;;4.10;1.05;;;;;;;19.92;34.67;100715.13;16116798;19;129780;-49
2023/04/11 22:01:13;;;;;;;3.60;0.68;;;;;;;19.88;34.46;100713.97;16115603;19;130278;-46
2023/04/11 22:06:37;;;;;;;3.60;0.63;;;;;;;19.86;34.44;100693.13;16117671;19;129746;-47
2023/04/11 22:11:59;;;;;;;4.50;0.70;;;;;;;19.83;34.92;100677.81;16117280;19;130092;-47
2023/04/11 22:17:22;;;;;;;4.32;0.60;;;;;;;19.80;34.67;100667.25;16114602;19;133790;-43
2023/04/11 22:22:44;;;;;;;2.83;0.70;;;;;;;19.77;34.49;100651.09;16111836;19;129953;-47
2023/04/11 22:28:06;;;;;;;2.20;0.80;;;;;;;19.73;34.69;100644.41;16113396;19;133151;-42
2023/04/11 22:33:28;;;;;;;3.03;0.82;;;;;;;19.69;34.87;100622.69;16110210;19;129592;-46
2023/04/11 22:38:50;;;;;;;3.00;1.00;;;;;;;19.66;34.41;100617.69;16110813;19;130328;-49
2023/04/11 22:44:12;;;;;;;2.08;0.65;;;;;;;19.65;34.52;100606.84;16111693;19;131529;-43
2023/04/11 22:49:40;;;;;;;2.60;0.60;;;;;;;19.62;34.58;100586.00;16117705;19;129051;-45
2023/04/11 22:55:03;;;;;;;3.75;0.75;;;;;;;19.60;34.64;100574.31;16127330;19;129745;-42
2023/04/11 23:00:25;;;;;;;1.60;0.63;;;;;;;19.57;34.41;100563.75;16127522;19;133492;-43
2023/04/11 23:05:47;;;;;;;3.60;0.90;;;;;;;19.53;34.88;100557.88;16121389;19;130310;-43
2023/04/11 23:11:09;;;;;;;3.42;0.85;;;;;;;19.52;34.68;100549.84;16126642;19;130376;-43
2023/04/11 23:16:31;;;;;;;1.88;0.50;;;;;;;19.51;34.58;100537.06;16123922;19;131017;-43
2023/04/11 23:21:53;;;;;;;2.85;0.70;;;;;;;19.48;34.70;100515.38;16124977;19;129496;-42
2023/04/11 23:27:15;;;;;;;1.98;0.70;;;;;;;19.46;34.63;100509.25;16126643;19;131739;-44
2023/04/11 23:32:38;;;;;;;2.15;0.52;;;;;;;19.44;34.46;100481.78;16127751;19;130582;-44
2023/04/11 23:38:01;;;;;;;1.63;0.80;;;;;;;19.43;34.57;100479.28;16123587;19;132688;-45
2023/04/11 23:43:23;;;;;;;2.28;0.60;;;;;;;19.40;34.59;100460.38;16124781;19;130983;-42
2023/04/11 23:48:45;;;;;;;1.88;0.50;;;;;;;19.37;34.78;100445.94;16124628;19;130033;-42
2023/04/11 23:54:07;;;;;;;1.20;0.50;;;;;;;19.36;34.93;100424.03;16123611;19;129369;-42
2023/04/11 23:59:30;;;;;;;1.48;0.50;;;;;;;19.34;34.69;100415.94;16120633;19;129668;-48
